Aérodrome :
LOGIN :

S'inscrire | Disclaimer

   EN    FR    IT 

 










Légende :    VFR   VFR Marginal   IFR   IFR Intensif   IFR Très Intensif
Visi : 
Plafond : 
>= 8 km
>= 3000ft
5 à 8 km
1000 à 3000 ft
1500m à 5 km
500 à 1000 ft
800 à 1500m
200 à 500 ft
< 800m
< 200 ft
Symboles :   Orages  Brouillard  Fortes neiges  Fortes précipitations  Vent > 20 kt
SIGMETs :   Divers  Orages  Givrage  Turbulence  Onde Orograph.  Cendres Volcan.







- Altitude de l'aérodrome : 1276 ft
- Code IATA : STR


EDDS - Stuttgart

DERNIER METAR :
  • 200150Z 26007KT CAVOK 02/M00 Q1022

METARs EXPIRÉS :
  • 200120Z 26007KT CAVOK 02/M00 Q1022
  • 200050Z 25009KT 220V290 CAVOK 03/M00 Q1022
  • 200020Z 24011KT CAVOK 04/00 Q1022
  • 192350Z 25009KT CAVOK 04/00 Q1022
  • 192320Z 24009KT 210V270 CAVOK 04/00 Q1022

TAF TAF EDDS
Valide du 20 à 00h jusqu'au 21 à 00h UTC


192300Z 2000/2024 24007KT 9999 BKN045
TEMPO 2017/2024 4000 -DZRA BKN012
Pas de NOTAMs connus pour ce terrain.



MET'MAP, la Météo Aéronautique d'un coup d'oeil ! - Copyright ORBIFLY Décembre 2007 - Disclaimer

ORBIFLY MET'MAP TEAM :

Programmation & Développement : Alexandra Zaïnal
Conception & Développement : Baudouin d'Aumeries
Co-Programmation & Développement : Marc-Olivier Méhu
Soutien technique & logistique : Manuel Goepfert

Contact : metmap@orbifly.com




SOURCES & CREDITS :

   NOAA